Palmyra, ME (04965)

9:12 AM EDT on August 25, 2016 (GMT -0400)
NRE Sales | | Change Station

Elev 230 ft 44.90 °N, 69.31 °W | Updated 4 seconds ago

Mostly Cloudy
Mostly Cloudy
70.3 °F
Feels Like 73 °F
N
0.0
Wind Variable Wind from South
Gusts 0.0 mph

Today
High -- | Low -- °F
--% Chance of Precip.
Yesterday
High -- | Low -- °F
Precip. -- in
Pressure 30.00 in
Visibility 10.0 miles
Clouds Few 6000 ft
Mostly Cloudy 15000 ft
Mostly Cloudy 25000 ft
Heat Index 73 °F
Dew Point 61 °F
Humidity 72%
Rainfall in
Snow Depth Not available.
5:51 AM 7:26 PM
Last Quarter, 46% visible
METAR KBGR 251253Z 18006KT 10SM FEW060 BKN150 BKN250 22/17 A3001 RMK AO2 SLP158 T02170172
Pressure 30.00 in
Visibility 10.0 miles
Clouds Few 6000 ft
Mostly Cloudy 15000 ft
Mostly Cloudy 25000 ft
Heat Index 73 °F
Dew Point 61 °F
Humidity 72%
Rainfall in
Snow Depth Not available.
5:51 AM 7:26 PM
Last Quarter, 46% visible
METAR KBGR 251253Z 18006KT 10SM FEW060 BKN150 BKN250 22/17 A3001 RMK AO2 SLP158 T02170172

10-Day Weather Forecast

Almanac

Astronomy

Aug. 25, 2016 Rise Set
Actual Time
Civil Twilight
Nautical Twilight
Astronomical Twilight
Moon
Length of Visible Light
Length of Day
Tomorrow will be .
, % of the Moon is Illuminated

Today's Extremes

State Highs State Lows

Community

WunderPhotos

Upload Photos

1,934,842 photos uploaded!

WunderBlog® & News

Nearby

Air Quality

  Air Quality AQ Index Pollutant
Not available.

Snow Depth

Station Depth Elevation

Earthquake Activity

City Distance Mag. Time & Date
Minimum magnitude displayed is 2.5.

Coastal Water Temperatures

Place Temperature

Stations

Nearby Weather Stations

Station Location Temp. Windchill Dew Point Humidity Wind Precip. Elev Updated Type
                   

Watches & Warnings

There are currently no watches in effect.